sensor_id;sensor_type;location;lat;lon;timestamp;temperature;humidity
10419;DHT22;5256;48.728;9.140;2023-08-17T00:00:10;18.00;99.90
10419;DHT22;5256;48.728;9.140;2023-08-17T00:02:40;18.00;99.90
10419;DHT22;5256;48.728;9.140;2023-08-17T00:05:06;17.90;99.90
10419;DHT22;5256;48.728;9.140;2023-08-17T00:07:32;17.90;99.90
10419;DHT22;5256;48.728;9.140;2023-08-17T00:09:57;17.90;99.90
10419;DHT22;5256;48.728;9.140;2023-08-17T00:12:24;17.90;99.90
10419;DHT22;5256;48.728;9.140;2023-08-17T00:14:50;17.90;99.90
10419;DHT22;5256;48.728;9.140;2023-08-17T00:17:16;17.90;99.90
10419;DHT22;5256;48.728;9.140;2023-08-17T00:19:41;17.90;99.90
10419;DHT22;5256;48.728;9.140;2023-08-17T00:22:07;17.90;99.90
10419;DHT22;5256;48.728;9.140;2023-08-17T00:24:33;17.90;99.90
10419;DHT22;5256;48.728;9.140;2023-08-17T00:26:59;18.00;99.90
10419;DHT22;5256;48.728;9.140;2023-08-17T00:29:24;18.00;99.90
10419;DHT22;5256;48.728;9.140;2023-08-17T00:31:50;18.00;99.90
10419;DHT22;5256;48.728;9.140;2023-08-17T00:34:16;17.90;99.90
10419;DHT22;5256;48.728;9.140;2023-08-17T00:36:42;17.90;99.90
10419;DHT22;5256;48.728;9.140;2023-08-17T00:39:07;17.90;99.90
10419;DHT22;5256;48.728;9.140;2023-08-17T00:41:33;17.90;99.90
10419;DHT22;5256;48.728;9.140;2023-08-17T00:44:00;17.90;99.90
10419;DHT22;5256;48.728;9.140;2023-08-17T00:46:25;17.80;99.90
10419;DHT22;5256;48.728;9.140;2023-08-17T00:48:52;17.80;99.90
10419;DHT22;5256;48.728;9.140;2023-08-17T00:51:23;17.80;99.90
10419;DHT22;5256;48.728;9.140;2023-08-17T00:53:58;17.80;99.90
10419;DHT22;5256;48.728;9.140;2023-08-17T00:56:24;17.70;99.90
10419;DHT22;5256;48.728;9.140;2023-08-17T00:58:50;17.70;99.90
10419;DHT22;5256;48.728;9.140;2023-08-17T01:01:16;17.70;99.90
10419;DHT22;5256;48.728;9.140;2023-08-17T01:03:42;17.60;99.90
10419;DHT22;5256;48.728;9.140;2023-08-17T01:06:09;17.60;99.90
10419;DHT22;5256;48.728;9.140;2023-08-17T01:08:35;17.60;99.90
10419;DHT22;5256;48.728;9.140;2023-08-17T01:11:34;17.50;99.90
10419;DHT22;5256;48.728;9.140;2023-08-17T01:14:02;17.60;99.90
10419;DHT22;5256;48.728;9.140;2023-08-17T01:16:43;17.60;99.90
10419;DHT22;5256;48.728;9.140;2023-08-17T01:19:27;17.60;99.90
10419;DHT22;5256;48.728;9.140;2023-08-17T01:22:05;17.70;99.90
10419;DHT22;5256;48.728;9.140;2023-08-17T01:24:33;17.80;99.90
10419;DHT22;5256;48.728;9.140;2023-08-17T01:26:59;17.80;99.90
10419;DHT22;5256;48.728;9.140;2023-08-17T01:29:25;17.90;99.90
10419;DHT22;5256;48.728;9.140;2023-08-17T01:31:59;18.00;99.90
10419;DHT22;5256;48.728;9.140;2023-08-17T01:34:33;18.10;99.90
10419;DHT22;5256;48.728;9.140;2023-08-17T01:37:02;18.20;99.90
10419;DHT22;5256;48.728;9.140;2023-08-17T01:39:37;18.20;99.90
10419;DHT22;5256;48.728;9.140;2023-08-17T01:42:03;18.30;99.90
10419;DHT22;5256;48.728;9.140;2023-08-17T01:44:30;18.40;99.90
10419;DHT22;5256;48.728;9.140;2023-08-17T01:46:56;18.50;99.90
10419;DHT22;5256;48.728;9.140;2023-08-17T01:49:21;18.60;99.90
10419;DHT22;5256;48.728;9.140;2023-08-17T01:51:47;18.60;99.90
10419;DHT22;5256;48.728;9.140;2023-08-17T01:54:13;18.60;99.90
10419;DHT22;5256;48.728;9.140;2023-08-17T01:56:38;18.70;99.90
10419;DHT22;5256;48.728;9.140;2023-08-17T01:59:04;18.60;99.90
10419;DHT22;5256;48.728;9.140;2023-08-17T02:01:29;18.60;99.90
10419;DHT22;5256;48.728;9.140;2023-08-17T02:03:55;18.60;99.90
10419;DHT22;5256;48.728;9.140;2023-08-17T02:06:20;18.70;99.90
10419;DHT22;5256;48.728;9.140;2023-08-17T02:08:46;18.70;99.90
10419;DHT22;5256;48.728;9.140;2023-08-17T02:11:11;18.80;99.90
10419;DHT22;5256;48.728;9.140;2023-08-17T02:13:37;18.90;99.90
10419;DHT22;5256;48.728;9.140;2023-08-17T02:16:04;18.80;99.90
10419;DHT22;5256;48.728;9.140;2023-08-17T02:18:29;18.80;99.90
10419;DHT22;5256;48.728;9.140;2023-08-17T02:20:57;18.80;99.90
10419;DHT22;5256;48.728;9.140;2023-08-17T02:23:23;18.80;99.90
10419;DHT22;5256;48.728;9.140;2023-08-17T02:25:48;18.90;99.90
10419;DHT22;5256;48.728;9.140;2023-08-17T02:28:14;19.00;99.90
10419;DHT22;5256;48.728;9.140;2023-08-17T02:30:39;19.10;99.90
10419;DHT22;5256;48.728;9.140;2023-08-17T02:33:05;19.10;99.90
10419;DHT22;5256;48.728;9.140;2023-08-17T02:35:31;19.10;99.90
10419;DHT22;5256;48.728;9.140;2023-08-17T02:37:56;19.00;99.90
10419;DHT22;5256;48.728;9.140;2023-08-17T02:40:22;18.90;99.90
10419;DHT22;5256;48.728;9.140;2023-08-17T02:42:47;18.90;99.90
10419;DHT22;5256;48.728;9.140;2023-08-17T02:45:13;18.90;99.90
10419;DHT22;5256;48.728;9.140;2023-08-17T02:47:38;18.80;99.90
10419;DHT22;5256;48.728;9.140;2023-08-17T02:50:05;18.80;99.90
10419;DHT22;5256;48.728;9.140;2023-08-17T02:52:31;18.70;99.90
10419;DHT22;5256;48.728;9.140;2023-08-17T02:54:56;18.70;99.90
10419;DHT22;5256;48.728;9.140;2023-08-17T02:57:22;18.70;99.90
10419;DHT22;5256;48.728;9.140;2023-08-17T02:59:47;18.80;99.90
10419;DHT22;5256;48.728;9.140;2023-08-17T03:02:13;18.80;99.90
10419;DHT22;5256;48.728;9.140;2023-08-17T03:04:38;18.80;99.90
10419;DHT22;5256;48.728;9.140;2023-08-17T03:07:04;18.80;99.90
10419;DHT22;5256;48.728;9.140;2023-08-17T03:09:29;18.80;99.90
10419;DHT22;5256;48.728;9.140;2023-08-17T03:11:55;18.80;99.90
10419;DHT22;5256;48.728;9.140;2023-08-17T03:14:21;18.80;99.90
10419;DHT22;5256;48.728;9.140;2023-08-17T03:16:46;18.80;99.90
10419;DHT22;5256;48.728;9.140;2023-08-17T03:19:12;18.80;99.90
10419;DHT22;5256;48.728;9.140;2023-08-17T03:21:38;18.70;99.90
10419;DHT22;5256;48.728;9.140;2023-08-17T03:24:03;18.70;99.90
10419;DHT22;5256;48.728;9.140;2023-08-17T03:26:29;18.70;99.90
10419;DHT22;5256;48.728;9.140;2023-08-17T03:28:55;18.80;99.90
10419;DHT22;5256;48.728;9.140;2023-08-17T03:31:21;18.80;99.90
10419;DHT22;5256;48.728;9.140;2023-08-17T03:33:47;18.80;99.90
10419;DHT22;5256;48.728;9.140;2023-08-17T03:36:12;18.80;99.90
10419;DHT22;5256;48.728;9.140;2023-08-17T03:38:38;18.80;99.90
10419;DHT22;5256;48.728;9.140;2023-08-17T03:41:07;18.80;99.90
10419;DHT22;5256;48.728;9.140;2023-08-17T03:43:33;18.80;99.90
10419;DHT22;5256;48.728;9.140;2023-08-17T03:45:58;18.80;99.90
10419;DHT22;5256;48.728;9.140;2023-08-17T03:48:24;18.80;99.90
10419;DHT22;5256;48.728;9.140;2023-08-17T03:50:54;18.80;99.90
10419;DHT22;5256;48.728;9.140;2023-08-17T03:53:20;18.90;99.90
10419;DHT22;5256;48.728;9.140;2023-08-17T03:55:50;18.90;99.90
10419;DHT22;5256;48.728;9.140;2023-08-17T03:58:17;18.90;99.90
10419;DHT22;5256;48.728;9.140;2023-08-17T04:00:48;19.00;99.90
10419;DHT22;5256;48.728;9.140;2023-08-17T04:03:13;18.90;99.90
10419;DHT22;5256;48.728;9.140;2023-08-17T04:05:39;18.90;99.90
10419;DHT22;5256;48.728;9.140;2023-08-17T04:08:04;18.80;99.90
10419;DHT22;5256;48.728;9.140;2023-08-17T04:10:30;18.70;99.90
10419;DHT22;5256;48.728;9.140;2023-08-17T04:12:58;18.70;99.90
10419;DHT22;5256;48.728;9.140;2023-08-17T04:15:24;18.60;99.90
10419;DHT22;5256;48.728;9.140;2023-08-17T04:17:50;18.70;99.90
10419;DHT22;5256;48.728;9.140;2023-08-17T04:20:16;18.70;99.90
10419;DHT22;5256;48.728;9.140;2023-08-17T04:22:41;18.60;99.90
10419;DHT22;5256;48.728;9.140;2023-08-17T04:25:07;18.60;99.90
10419;DHT22;5256;48.728;9.140;2023-08-17T04:27:33;18.60;99.90
10419;DHT22;5256;48.728;9.140;2023-08-17T04:29:59;18.70;99.90
10419;DHT22;5256;48.728;9.140;2023-08-17T04:32:25;18.80;99.90
10419;DHT22;5256;48.728;9.140;2023-08-17T04:34:51;18.90;99.90
10419;DHT22;5256;48.728;9.140;2023-08-17T04:37:16;18.90;99.90
10419;DHT22;5256;48.728;9.140;2023-08-17T04:39:42;18.80;99.90
10419;DHT22;5256;48.728;9.140;2023-08-17T04:42:09;18.90;99.90
10419;DHT22;5256;48.728;9.140;2023-08-17T04:44:35;18.90;99.90
10419;DHT22;5256;48.728;9.140;2023-08-17T04:47:00;18.80;99.90
10419;DHT22;5256;48.728;9.140;2023-08-17T04:49:26;18.90;99.90
10419;DHT22;5256;48.728;9.140;2023-08-17T04:51:52;18.80;99.90
10419;DHT22;5256;48.728;9.140;2023-08-17T04:54:18;18.70;99.90
10419;DHT22;5256;48.728;9.140;2023-08-17T04:56:43;18.70;99.90
10419;DHT22;5256;48.728;9.140;2023-08-17T04:59:09;18.60;99.90
10419;DHT22;5256;48.728;9.140;2023-08-17T05:01:35;18.80;99.90
10419;DHT22;5256;48.728;9.140;2023-08-17T05:04:01;18.90;99.90
10419;DHT22;5256;48.728;9.140;2023-08-17T05:06:30;19.00;99.90
10419;DHT22;5256;48.728;9.140;2023-08-17T05:08:56;19.10;99.90
10419;DHT22;5256;48.728;9.140;2023-08-17T05:11:22;19.10;99.90
10419;DHT22;5256;48.728;9.140;2023-08-17T05:13:47;19.10;99.90
10419;DHT22;5256;48.728;9.140;2023-08-17T05:16:13;19.20;99.90
10419;DHT22;5256;48.728;9.140;2023-08-17T05:18:38;19.20;99.90
10419;DHT22;5256;48.728;9.140;2023-08-17T05:21:04;19.20;99.90
10419;DHT22;5256;48.728;9.140;2023-08-17T05:23:29;19.30;99.90
10419;DHT22;5256;48.728;9.140;2023-08-17T05:25:55;19.30;99.90
10419;DHT22;5256;48.728;9.140;2023-08-17T05:28:20;19.30;99.90
10419;DHT22;5256;48.728;9.140;2023-08-17T05:30:46;19.30;99.90
10419;DHT22;5256;48.728;9.140;2023-08-17T05:33:12;19.30;99.90
10419;DHT22;5256;48.728;9.140;2023-08-17T05:35:37;19.30;99.90
10419;DHT22;5256;48.728;9.140;2023-08-17T05:38:03;19.20;99.90
10419;DHT22;5256;48.728;9.140;2023-08-17T05:40:30;19.30;99.90
10419;DHT22;5256;48.728;9.140;2023-08-17T05:42:56;19.40;99.90
10419;DHT22;5256;48.728;9.140;2023-08-17T05:45:21;19.40;99.90
10419;DHT22;5256;48.728;9.140;2023-08-17T05:47:47;19.30;99.90
10419;DHT22;5256;48.728;9.140;2023-08-17T05:50:13;19.30;99.90
10419;DHT22;5256;48.728;9.140;2023-08-17T05:52:39;19.50;99.90
10419;DHT22;5256;48.728;9.140;2023-08-17T05:55:05;19.50;99.90
10419;DHT22;5256;48.728;9.140;2023-08-17T05:57:31;19.50;99.90
10419;DHT22;5256;48.728;9.140;2023-08-17T05:59:56;19.70;99.90
10419;DHT22;5256;48.728;9.140;2023-08-17T06:02:22;19.80;99.90
10419;DHT22;5256;48.728;9.140;2023-08-17T06:04:48;19.80;99.90
10419;DHT22;5256;48.728;9.140;2023-08-17T06:07:13;19.80;99.90
10419;DHT22;5256;48.728;9.140;2023-08-17T06:09:39;19.70;99.90
10419;DHT22;5256;48.728;9.140;2023-08-17T06:12:05;19.70;99.90
10419;DHT22;5256;48.728;9.140;2023-08-17T06:14:32;19.70;99.90
10419;DHT22;5256;48.728;9.140;2023-08-17T06:16:58;19.90;99.90
10419;DHT22;5256;48.728;9.140;2023-08-17T06:19:23;20.20;99.90
10419;DHT22;5256;48.728;9.140;2023-08-17T06:21:49;20.30;99.90
10419;DHT22;5256;48.728;9.140;2023-08-17T06:24:15;20.40;99.90
10419;DHT22;5256;48.728;9.140;2023-08-17T06:26:40;20.30;99.90
10419;DHT22;5256;48.728;9.140;2023-08-17T06:29:07;20.40;99.90
10419;DHT22;5256;48.728;9.140;2023-08-17T06:31:32;20.40;99.90
10419;DHT22;5256;48.728;9.140;2023-08-17T06:33:58;20.60;99.90
10419;DHT22;5256;48.728;9.140;2023-08-17T06:36:23;20.50;99.90
10419;DHT22;5256;48.728;9.140;2023-08-17T06:38:49;20.90;99.90
10419;DHT22;5256;48.728;9.140;2023-08-17T06:41:16;21.10;99.90
10419;DHT22;5256;48.728;9.140;2023-08-17T06:43:41;21.20;99.90
10419;DHT22;5256;48.728;9.140;2023-08-17T06:46:07;21.30;99.90
10419;DHT22;5256;48.728;9.140;2023-08-17T06:48:32;21.40;99.90
10419;DHT22;5256;48.728;9.140;2023-08-17T06:50:58;21.40;99.90
10419;DHT22;5256;48.728;9.140;2023-08-17T06:53:23;21.20;99.90
10419;DHT22;5256;48.728;9.140;2023-08-17T06:55:49;21.30;99.90
10419;DHT22;5256;48.728;9.140;2023-08-17T06:58:14;21.40;99.90
10419;DHT22;5256;48.728;9.140;2023-08-17T07:00:40;21.50;99.90
10419;DHT22;5256;48.728;9.140;2023-08-17T07:03:06;21.60;99.90
10419;DHT22;5256;48.728;9.140;2023-08-17T07:05:32;21.60;99.90
10419;DHT22;5256;48.728;9.140;2023-08-17T07:07:58;21.60;99.90
10419;DHT22;5256;48.728;9.140;2023-08-17T07:10:25;21.70;99.90
10419;DHT22;5256;48.728;9.140;2023-08-17T07:12:50;21.70;99.90
10419;DHT22;5256;48.728;9.140;2023-08-17T07:15:16;21.70;99.90
10419;DHT22;5256;48.728;9.140;2023-08-17T07:17:42;21.80;99.90
10419;DHT22;5256;48.728;9.140;2023-08-17T07:20:08;21.90;99.90
10419;DHT22;5256;48.728;9.140;2023-08-17T07:22:35;22.20;99.90
10419;DHT22;5256;48.728;9.140;2023-08-17T07:25:00;22.70;99.90
10419;DHT22;5256;48.728;9.140;2023-08-17T07:27:26;23.10;99.90
10419;DHT22;5256;48.728;9.140;2023-08-17T07:29:52;23.00;99.90
10419;DHT22;5256;48.728;9.140;2023-08-17T07:32:17;23.20;99.90
10419;DHT22;5256;48.728;9.140;2023-08-17T07:34:43;23.40;99.90
10419;DHT22;5256;48.728;9.140;2023-08-17T07:37:10;23.30;99.90
10419;DHT22;5256;48.728;9.140;2023-08-17T07:39:35;23.70;99.90
10419;DHT22;5256;48.728;9.140;2023-08-17T07:42:01;24.10;99.90
10419;DHT22;5256;48.728;9.140;2023-08-17T07:44:26;24.50;99.90
10419;DHT22;5256;48.728;9.140;2023-08-17T07:46:54;25.00;99.90
10419;DHT22;5256;48.728;9.140;2023-08-17T07:49:19;25.20;99.90
10419;DHT22;5256;48.728;9.140;2023-08-17T07:51:45;25.50;99.90
10419;DHT22;5256;48.728;9.140;2023-08-17T07:54:11;25.80;99.90
10419;DHT22;5256;48.728;9.140;2023-08-17T07:56:36;25.80;99.90
10419;DHT22;5256;48.728;9.140;2023-08-17T07:59:02;25.90;99.90
10419;DHT22;5256;48.728;9.140;2023-08-17T08:01:28;26.10;99.90
10419;DHT22;5256;48.728;9.140;2023-08-17T08:03:53;26.40;99.90
10419;DHT22;5256;48.728;9.140;2023-08-17T08:06:19;26.10;99.90
10419;DHT22;5256;48.728;9.140;2023-08-17T08:08:46;26.30;99.90
10419;DHT22;5256;48.728;9.140;2023-08-17T08:11:11;26.40;99.90
10419;DHT22;5256;48.728;9.140;2023-08-17T08:13:37;26.70;99.90
10419;DHT22;5256;48.728;9.140;2023-08-17T08:16:03;26.90;99.90
10419;DHT22;5256;48.728;9.140;2023-08-17T08:18:28;26.80;99.90
10419;DHT22;5256;48.728;9.140;2023-08-17T08:20:54;26.90;99.90
10419;DHT22;5256;48.728;9.140;2023-08-17T08:23:19;26.90;99.90
10419;DHT22;5256;48.728;9.140;2023-08-17T08:25:45;27.20;99.90
10419;DHT22;5256;48.728;9.140;2023-08-17T08:28:10;27.50;99.90
10419;DHT22;5256;48.728;9.140;2023-08-17T08:30:36;27.40;99.90
10419;DHT22;5256;48.728;9.140;2023-08-17T08:33:02;27.60;99.90
10419;DHT22;5256;48.728;9.140;2023-08-17T08:35:28;27.80;99.90
10419;DHT22;5256;48.728;9.140;2023-08-17T08:37:54;27.70;99.90
10419;DHT22;5256;48.728;9.140;2023-08-17T08:40:29;27.90;99.90
10419;DHT22;5256;48.728;9.140;2023-08-17T08:42:57;28.00;99.90
10419;DHT22;5256;48.728;9.140;2023-08-17T08:45:23;28.10;99.90
10419;DHT22;5256;48.728;9.140;2023-08-17T08:47:51;28.00;99.90
10419;DHT22;5256;48.728;9.140;2023-08-17T08:50:19;28.40;99.90
10419;DHT22;5256;48.728;9.140;2023-08-17T08:52:58;28.70;99.90
10419;DHT22;5256;48.728;9.140;2023-08-17T08:55:27;28.80;99.90
10419;DHT22;5256;48.728;9.140;2023-08-17T08:57:53;29.10;99.90
10419;DHT22;5256;48.728;9.140;2023-08-17T09:00:20;29.30;99.90
10419;DHT22;5256;48.728;9.140;2023-08-17T09:02:46;29.30;99.90
10419;DHT22;5256;48.728;9.140;2023-08-17T09:05:13;29.40;99.90
10419;DHT22;5256;48.728;9.140;2023-08-17T09:07:39;29.60;99.90
10419;DHT22;5256;48.728;9.140;2023-08-17T09:10:06;29.60;99.90
10419;DHT22;5256;48.728;9.140;2023-08-17T09:12:32;29.60;99.90
10419;DHT22;5256;48.728;9.140;2023-08-17T09:14:58;29.90;99.90
10419;DHT22;5256;48.728;9.140;2023-08-17T09:17:25;29.70;99.90
10419;DHT22;5256;48.728;9.140;2023-08-17T09:19:51;29.80;99.90
10419;DHT22;5256;48.728;9.140;2023-08-17T09:22:37;30.10;99.90
10419;DHT22;5256;48.728;9.140;2023-08-17T09:25:05;30.60;99.90
10419;DHT22;5256;48.728;9.140;2023-08-17T09:27:31;30.80;99.90
10419;DHT22;5256;48.728;9.140;2023-08-17T09:30:04;31.10;99.90
10419;DHT22;5256;48.728;9.140;2023-08-17T09:32:31;31.20;99.90
10419;DHT22;5256;48.728;9.140;2023-08-17T09:35:00;31.50;99.90
10419;DHT22;5256;48.728;9.140;2023-08-17T09:37:26;31.90;99.90
10419;DHT22;5256;48.728;9.140;2023-08-17T09:39:53;32.10;99.90
10419;DHT22;5256;48.728;9.140;2023-08-17T09:42:18;32.00;99.90
10419;DHT22;5256;48.728;9.140;2023-08-17T09:44:44;31.40;99.90
10419;DHT22;5256;48.728;9.140;2023-08-17T09:47:10;30.70;99.90
10419;DHT22;5256;48.728;9.140;2023-08-17T09:49:36;30.60;99.90
10419;DHT22;5256;48.728;9.140;2023-08-17T09:52:01;30.60;99.90
10419;DHT22;5256;48.728;9.140;2023-08-17T09:54:31;30.50;99.90
10419;DHT22;5256;48.728;9.140;2023-08-17T09:56:58;30.40;99.90
10419;DHT22;5256;48.728;9.140;2023-08-17T09:59:23;30.60;99.90
10419;DHT22;5256;48.728;9.140;2023-08-17T10:01:50;30.90;99.90
10419;DHT22;5256;48.728;9.140;2023-08-17T10:04:23;30.60;99.90
10419;DHT22;5256;48.728;9.140;2023-08-17T10:07:00;30.80;99.90
10419;DHT22;5256;48.728;9.140;2023-08-17T10:09:36;31.00;99.90
10419;DHT22;5256;48.728;9.140;2023-08-17T10:12:10;31.20;99.90
10419;DHT22;5256;48.728;9.140;2023-08-17T10:14:41;31.00;99.90
10419;DHT22;5256;48.728;9.140;2023-08-17T10:17:12;31.00;99.90
10419;DHT22;5256;48.728;9.140;2023-08-17T10:19:47;30.80;99.90
10419;DHT22;5256;48.728;9.140;2023-08-17T10:22:26;30.30;99.90
10419;DHT22;5256;48.728;9.140;2023-08-17T10:24:57;30.10;99.90
10419;DHT22;5256;48.728;9.140;2023-08-17T10:27:24;29.60;99.90
10419;DHT22;5256;48.728;9.140;2023-08-17T10:29:51;29.20;99.90
10419;DHT22;5256;48.728;9.140;2023-08-17T10:32:16;29.40;99.90
10419;DHT22;5256;48.728;9.140;2023-08-17T10:34:42;29.00;99.90
10419;DHT22;5256;48.728;9.140;2023-08-17T10:37:09;29.30;99.90
10419;DHT22;5256;48.728;9.140;2023-08-17T10:39:36;29.40;99.90
10419;DHT22;5256;48.728;9.140;2023-08-17T10:42:05;29.40;99.90
10419;DHT22;5256;48.728;9.140;2023-08-17T10:44:49;29.40;99.90
10419;DHT22;5256;48.728;9.140;2023-08-17T10:47:23;29.40;99.90
10419;DHT22;5256;48.728;9.140;2023-08-17T10:50:35;29.50;99.90
10419;DHT22;5256;48.728;9.140;2023-08-17T10:52:36;29.40;99.90
10419;DHT22;5256;48.728;9.140;2023-08-17T10:55:07;29.30;99.90
10419;DHT22;5256;48.728;9.140;2023-08-17T10:57:38;29.30;99.90
10419;DHT22;5256;48.728;9.140;2023-08-17T11:00:17;29.50;99.90
10419;DHT22;5256;48.728;9.140;2023-08-17T11:02:53;29.40;99.90
10419;DHT22;5256;48.728;9.140;2023-08-17T11:08:19;29.00;99.90
10419;DHT22;5256;48.728;9.140;2023-08-17T11:11:01;28.70;99.90
10419;DHT22;5256;48.728;9.140;2023-08-17T11:13:28;29.00;99.90
10419;DHT22;5256;48.728;9.140;2023-08-17T11:15:54;29.10;99.90
10419;DHT22;5256;48.728;9.140;2023-08-17T11:18:20;29.10;99.90
10419;DHT22;5256;48.728;9.140;2023-08-17T11:20:46;29.10;99.90
10419;DHT22;5256;48.728;9.140;2023-08-17T11:23:13;29.30;99.90
10419;DHT22;5256;48.728;9.140;2023-08-17T11:25:39;29.40;99.90
10419;DHT22;5256;48.728;9.140;2023-08-17T11:28:07;29.40;99.90
10419;DHT22;5256;48.728;9.140;2023-08-17T11:30:34;29.40;99.90
10419;DHT22;5256;48.728;9.140;2023-08-17T11:33:01;29.60;99.90
10419;DHT22;5256;48.728;9.140;2023-08-17T11:35:27;29.90;99.90
10419;DHT22;5256;48.728;9.140;2023-08-17T11:37:52;30.10;99.90
10419;DHT22;5256;48.728;9.140;2023-08-17T11:40:18;30.10;99.90
10419;DHT22;5256;48.728;9.140;2023-08-17T11:42:45;30.20;99.90
10419;DHT22;5256;48.728;9.140;2023-08-17T11:45:12;30.50;99.90
10419;DHT22;5256;48.728;9.140;2023-08-17T11:47:41;30.40;99.90
10419;DHT22;5256;48.728;9.140;2023-08-17T11:50:12;30.60;99.90
10419;DHT22;5256;48.728;9.140;2023-08-17T11:52:38;30.70;99.90
10419;DHT22;5256;48.728;9.140;2023-08-17T11:55:05;30.70;99.90
10419;DHT22;5256;48.728;9.140;2023-08-17T11:57:34;30.70;99.90
10419;DHT22;5256;48.728;9.140;2023-08-17T12:00:01;30.60;99.90
10419;DHT22;5256;48.728;9.140;2023-08-17T12:02:29;30.50;99.90
10419;DHT22;5256;48.728;9.140;2023-08-17T12:04:56;30.40;99.90
10419;DHT22;5256;48.728;9.140;2023-08-17T12:07:24;30.30;99.90
10419;DHT22;5256;48.728;9.140;2023-08-17T12:09:50;30.40;99.90
10419;DHT22;5256;48.728;9.140;2023-08-17T12:12:22;30.40;99.90
10419;DHT22;5256;48.728;9.140;2023-08-17T12:14:48;30.40;99.90
10419;DHT22;5256;48.728;9.140;2023-08-17T12:17:18;30.20;99.90
10419;DHT22;5256;48.728;9.140;2023-08-17T12:19:45;30.40;99.90
10419;DHT22;5256;48.728;9.140;2023-08-17T12:22:13;30.10;99.90
10419;DHT22;5256;48.728;9.140;2023-08-17T12:24:39;30.50;99.90
10419;DHT22;5256;48.728;9.140;2023-08-17T12:27:05;30.70;99.90
10419;DHT22;5256;48.728;9.140;2023-08-17T12:29:31;30.60;99.90
10419;DHT22;5256;48.728;9.140;2023-08-17T12:31:57;30.40;99.90
10419;DHT22;5256;48.728;9.140;2023-08-17T12:34:23;30.20;99.90
10419;DHT22;5256;48.728;9.140;2023-08-17T12:36:49;30.00;99.90
10419;DHT22;5256;48.728;9.140;2023-08-17T12:39:16;29.80;99.90
10419;DHT22;5256;48.728;9.140;2023-08-17T12:41:41;29.60;99.90
10419;DHT22;5256;48.728;9.140;2023-08-17T12:44:09;29.30;99.90
10419;DHT22;5256;48.728;9.140;2023-08-17T12:46:37;28.90;99.90
10419;DHT22;5256;48.728;9.140;2023-08-17T12:49:03;28.70;99.90
10419;DHT22;5256;48.728;9.140;2023-08-17T12:51:28;28.60;99.90
10419;DHT22;5256;48.728;9.140;2023-08-17T12:53:54;28.30;99.90
10419;DHT22;5256;48.728;9.140;2023-08-17T12:56:19;28.10;99.90
10419;DHT22;5256;48.728;9.140;2023-08-17T12:58:45;28.00;99.90
10419;DHT22;5256;48.728;9.140;2023-08-17T13:01:10;28.00;99.90
10419;DHT22;5256;48.728;9.140;2023-08-17T13:03:37;27.80;99.90
10419;DHT22;5256;48.728;9.140;2023-08-17T13:06:02;27.60;99.90
10419;DHT22;5256;48.728;9.140;2023-08-17T13:08:28;27.30;99.90
10419;DHT22;5256;48.728;9.140;2023-08-17T13:10:53;26.90;99.90
10419;DHT22;5256;48.728;9.140;2023-08-17T13:13:20;26.80;99.90
10419;DHT22;5256;48.728;9.140;2023-08-17T13:15:45;26.50;99.90
10419;DHT22;5256;48.728;9.140;2023-08-17T13:18:11;26.30;99.90
10419;DHT22;5256;48.728;9.140;2023-08-17T13:20:37;26.20;99.90
10419;DHT22;5256;48.728;9.140;2023-08-17T13:23:04;26.10;99.90
10419;DHT22;5256;48.728;9.140;2023-08-17T13:25:29;25.80;99.90
10419;DHT22;5256;48.728;9.140;2023-08-17T13:27:55;25.50;99.90
10419;DHT22;5256;48.728;9.140;2023-08-17T13:30:21;25.30;99.90
10419;DHT22;5256;48.728;9.140;2023-08-17T13:32:46;25.00;99.90
10419;DHT22;5256;48.728;9.140;2023-08-17T13:35:12;24.80;99.90
10419;DHT22;5256;48.728;9.140;2023-08-17T13:37:37;24.50;99.90
10419;DHT22;5256;48.728;9.140;2023-08-17T13:40:04;24.30;99.90
10419;DHT22;5256;48.728;9.140;2023-08-17T13:42:29;24.10;99.90
10419;DHT22;5256;48.728;9.140;2023-08-17T13:44:55;24.00;99.90
10419;DHT22;5256;48.728;9.140;2023-08-17T13:47:20;23.80;99.90
10419;DHT22;5256;48.728;9.140;2023-08-17T13:49:46;23.60;99.90
10419;DHT22;5256;48.728;9.140;2023-08-17T13:52:11;23.50;99.90
10419;DHT22;5256;48.728;9.140;2023-08-17T13:54:37;23.50;99.90
10419;DHT22;5256;48.728;9.140;2023-08-17T13:57:03;23.50;99.90
10419;DHT22;5256;48.728;9.140;2023-08-17T13:59:28;23.50;99.90
10419;DHT22;5256;48.728;9.140;2023-08-17T14:01:55;23.50;99.90
10419;DHT22;5256;48.728;9.140;2023-08-17T14:04:21;23.50;99.90
10419;DHT22;5256;48.728;9.140;2023-08-17T14:06:47;23.50;99.90
10419;DHT22;5256;48.728;9.140;2023-08-17T14:09:13;23.60;99.90
10419;DHT22;5256;48.728;9.140;2023-08-17T14:11:39;23.60;99.90
10419;DHT22;5256;48.728;9.140;2023-08-17T14:14:04;23.60;99.90
10419;DHT22;5256;48.728;9.140;2023-08-17T14:16:31;23.70;99.90
10419;DHT22;5256;48.728;9.140;2023-08-17T14:18:56;23.80;99.90
10419;DHT22;5256;48.728;9.140;2023-08-17T14:21:22;23.80;99.90
10419;DHT22;5256;48.728;9.140;2023-08-17T14:23:47;23.80;99.90
10419;DHT22;5256;48.728;9.140;2023-08-17T14:26:13;23.80;99.90
10419;DHT22;5256;48.728;9.140;2023-08-17T14:28:38;23.70;99.90
10419;DHT22;5256;48.728;9.140;2023-08-17T14:31:04;23.60;99.90
10419;DHT22;5256;48.728;9.140;2023-08-17T14:33:30;23.60;99.90
10419;DHT22;5256;48.728;9.140;2023-08-17T14:35:55;23.60;99.90
10419;DHT22;5256;48.728;9.140;2023-08-17T14:38:21;23.70;99.90
10419;DHT22;5256;48.728;9.140;2023-08-17T14:40:48;23.70;99.90
10419;DHT22;5256;48.728;9.140;2023-08-17T14:43:14;23.80;99.90
10419;DHT22;5256;48.728;9.140;2023-08-17T14:45:41;23.90;99.90
10419;DHT22;5256;48.728;9.140;2023-08-17T14:48:07;23.90;99.90
10419;DHT22;5256;48.728;9.140;2023-08-17T14:50:33;23.80;99.90
10419;DHT22;5256;48.728;9.140;2023-08-17T14:52:59;23.90;99.90
10419;DHT22;5256;48.728;9.140;2023-08-17T14:55:27;24.20;99.90
10419;DHT22;5256;48.728;9.140;2023-08-17T14:57:53;24.50;99.90
10419;DHT22;5256;48.728;9.140;2023-08-17T15:00:18;24.70;99.90
10419;DHT22;5256;48.728;9.140;2023-08-17T15:02:44;25.00;99.90
10419;DHT22;5256;48.728;9.140;2023-08-17T15:05:11;25.00;99.90
10419;DHT22;5256;48.728;9.140;2023-08-17T15:07:36;25.00;99.90
10419;DHT22;5256;48.728;9.140;2023-08-17T15:10:02;25.10;99.90
10419;DHT22;5256;48.728;9.140;2023-08-17T15:12:28;25.10;99.90
10419;DHT22;5256;48.728;9.140;2023-08-17T15:14:53;25.20;99.90
10419;DHT22;5256;48.728;9.140;2023-08-17T15:17:19;25.30;99.90
10419;DHT22;5256;48.728;9.140;2023-08-17T15:19:44;25.30;99.90
10419;DHT22;5256;48.728;9.140;2023-08-17T15:22:10;25.20;99.90
10419;DHT22;5256;48.728;9.140;2023-08-17T15:24:35;25.20;99.90
10419;DHT22;5256;48.728;9.140;2023-08-17T15:27:01;25.50;99.90
10419;DHT22;5256;48.728;9.140;2023-08-17T15:29:27;25.80;99.90
10419;DHT22;5256;48.728;9.140;2023-08-17T15:31:53;26.00;99.90
10419;DHT22;5256;48.728;9.140;2023-08-17T15:34:18;26.20;99.90
10419;DHT22;5256;48.728;9.140;2023-08-17T15:36:44;26.30;99.90
10419;DHT22;5256;48.728;9.140;2023-08-17T15:39:09;26.40;99.90
10419;DHT22;5256;48.728;9.140;2023-08-17T15:41:35;26.50;99.90
10419;DHT22;5256;48.728;9.140;2023-08-17T15:44:00;26.70;99.90